Saint John, Kansas
Current Conditions -  °F | °C
As of 3:35 PM on Monday 24 Nov 2014 (Local Time) from KPTT Reporting Station
Clear Clear  
Wind Chill: 50°   Ceiling: Unl
Heat Index: 50°   Visibility: 10mi
Dew Point: 14°   Wind: 20mph
Humidity: 24%   Direction: 330°NNW
Pressure: 29.96"   Gusts: 25mph
Location:  38°N, 98.76°W
Report Text: KPTT 242135Z AUTO 33017G22KT 10SM CLR 10/M10 A2996 RMK AO2
Loading
Personal Weather Stations






























Interactive Weather Map New forecast layout! Learn more

10-Day Weather Forecast

Advertisements
Track Severe Weather on mobile